Time;durP1;ratioP1;P1;durP2;ratioP2;P2;SDS_P1;SDS_P2;PMS_P1;PMS_P2;Temp;Humidity;BMP_temperature;BMP_pressure;BME280_temperature;BME280_humidity;BME280_pressure;Samples;Min_cycle;Max_cycle;Signal;HPM_P1;HPM_P2
2022/10/28 00:00:51;;;;;;;12.30;9.87;;;14.00;99.90;;;;;;5113962;28;20384;-79
2022/10/28 00:03:46;;;;;;;17.13;9.33;;;14.00;99.90;;;;;;5115122;28;20408;-81
2022/10/28 00:06:33;;;;;;;12.90;8.70;;;14.00;99.90;;;;;;5114816;28;20387;-81
2022/10/28 00:09:18;;;;;;;15.20;9.13;;;14.00;99.90;;;;;;5113567;28;20396;-81
2022/10/28 00:12:02;;;;;;;10.27;9.00;;;14.10;99.90;;;;;;5097704;28;20385;-80
2022/10/28 00:14:46;;;;;;;12.17;9.77;;;14.20;99.90;;;;;;5115624;28;20393;-80
2022/10/28 00:17:31;;;;;;;17.57;9.10;;;14.30;99.90;;;;;;5114181;28;20512;-81
2022/10/28 00:20:15;;;;;;;11.83;8.33;;;14.30;99.90;;;;;;5115077;28;20441;-80
2022/10/28 00:22:59;;;;;;;10.70;7.43;;;14.30;99.90;;;;;;5116562;28;20444;-80
2022/10/28 00:25:43;;;;;;;15.77;9.43;;;14.20;99.90;;;;;;5110421;28;20396;-81
2022/10/28 00:28:27;;;;;;;20.33;8.93;;;14.20;99.90;;;;;;5100920;28;20391;-81
2022/10/28 00:31:13;;;;;;;11.73;10.07;;;14.10;99.90;;;;;;5100006;28;20474;-81
2022/10/28 00:33:59;;;;;;;15.60;8.40;;;14.10;99.90;;;;;;5100183;28;20530;-81
2022/10/28 00:36:45;;;;;;;13.10;7.70;;;14.10;99.90;;;;;;5099688;28;20447;-81
2022/10/28 00:39:29;;;;;;;12.17;10.27;;;14.10;99.90;;;;;;5100363;28;20376;-81
2022/10/28 00:42:17;;;;;;;13.33;8.37;;;14.00;99.90;;;;;;5099496;28;20427;-81
2022/10/28 00:45:04;;;;;;;15.33;9.90;;;13.90;99.90;;;;;;5099423;28;20384;-81
2022/10/28 00:47:54;;;;;;;11.63;7.90;;;13.90;99.90;;;;;;5099468;28;20458;-81
2022/10/28 00:50:50;;;;;;;12.93;8.37;;;13.90;99.90;;;;;;5098586;28;20888;-81
2022/10/28 00:53:36;;;;;;;16.57;8.43;;;13.90;99.90;;;;;;5099568;28;20462;-81
2022/10/28 00:56:23;;;;;;;12.23;8.57;;;13.80;99.90;;;;;;5082895;28;20497;-81
2022/10/28 00:59:15;;;;;;;13.00;8.73;;;13.80;99.90;;;;;;5099016;28;20404;-81
2022/10/28 01:02:00;;;;;;;12.17;7.90;;;13.70;99.90;;;;;;5098778;28;20380;-81
2022/10/28 01:04:45;;;;;;;12.73;7.90;;;13.60;99.90;;;;;;5098556;28;20399;-81
2022/10/28 01:07:29;;;;;;;12.07;7.17;;;13.60;99.90;;;;;;5099130;28;20434;-81
2022/10/28 01:10:14;;;;;;;12.23;8.00;;;13.60;99.90;;;;;;5083589;28;20380;-81
2022/10/28 01:13:14;;;;;;;13.50;7.17;;;13.50;99.90;;;;;;5097887;28;20466;-81
2022/10/28 01:16:23;;;;;;;10.10;6.53;;;13.40;99.90;;;;;;5098603;28;20451;-81
2022/10/28 01:19:43;;;;;;;10.00;7.00;;;13.50;99.90;;;;;;5099492;28;20391;-81
2022/10/28 01:22:51;;;;;;;8.23;7.37;;;13.40;99.90;;;;;;5098833;28;20395;-81
2022/10/28 01:26:03;;;;;;;11.30;7.27;;;13.40;99.90;;;;;;5099631;28;20395;-81
2022/10/28 01:29:10;;;;;;;12.37;7.30;;;13.40;99.90;;;;;;5098018;28;20400;-81
2022/10/28 01:32:04;;;;;;;12.23;8.17;;;13.50;99.90;;;;;;5098477;28;20395;-81
2022/10/28 01:35:03;;;;;;;17.80;8.03;;;13.50;99.90;;;;;;5098461;28;20400;-81
2022/10/28 01:38:14;;;;;;;15.60;7.33;;;13.60;99.90;;;;;;5098540;28;20504;-81
2022/10/28 01:41:16;;;;;;;8.07;7.00;;;13.70;99.90;;;;;;5097968;28;20396;-81
2022/10/28 01:44:20;;;;;;;8.43;6.10;;;13.40;99.90;;;;;;5097126;28;20380;-81
2022/10/28 01:47:27;;;;;;;14.53;6.67;;;13.30;99.90;;;;;;5098712;28;20743;-81
2022/10/28 01:50:21;;;;;;;12.47;7.43;;;13.30;99.90;;;;;;5103521;28;20387;-81
2022/10/28 01:53:11;;;;;;;14.33;8.83;;;13.40;99.90;;;;;;5103324;28;20391;-81
2022/10/28 01:56:01;;;;;;;8.87;6.57;;;13.50;99.90;;;;;;5103295;28;20422;-81
2022/10/28 01:58:47;;;;;;;9.80;6.70;;;13.50;99.90;;;;;;5102782;28;20446;-81
2022/10/28 02:01:32;;;;;;;19.90;7.83;;;13.50;99.90;;;;;;5102997;28;20384;-81
2022/10/28 02:04:17;;;;;;;17.20;8.40;;;13.50;99.90;;;;;;5102846;28;20476;-81
2022/10/28 02:07:01;;;;;;;8.30;7.23;;;13.40;99.90;;;;;;5103100;28;20384;-81
2022/10/28 02:10:00;;;;;;;8.63;7.37;;;13.40;99.90;;;;;;5102329;28;20406;-81
2022/10/28 02:12:48;;;;;;;10.70;6.57;;;13.40;99.90;;;;;;5102550;28;20388;-81
2022/10/28 02:15:59;;;;;;;11.30;7.10;;;13.40;99.90;;;;;;5102785;28;20434;-81
2022/10/28 02:19:15;;;;;;;16.47;7.47;;;13.30;99.90;;;;;;5101727;28;20403;-81
2022/10/28 02:22:38;;;;;;;7.00;6.30;;;13.30;99.90;;;;;;5102126;28;20383;-81
2022/10/28 02:25:48;;;;;;;16.50;7.47;;;13.30;99.90;;;;;;5102387;28;20387;-81
2022/10/28 02:28:53;;;;;;;10.87;6.33;;;13.30;99.90;;;;;;5109823;28;20391;-80
2022/10/28 02:31:43;;;;;;;12.83;8.07;;;13.30;99.90;;;;;;5113750;28;20392;-81
2022/10/28 02:34:34;;;;;;;15.00;8.57;;;13.40;99.90;;;;;;5102776;28;20455;-81
2022/10/28 02:37:24;;;;;;;11.10;7.80;;;13.40;99.90;;;;;;5101567;28;20509;-81
2022/10/28 02:40:15;;;;;;;16.57;9.17;;;13.40;99.90;;;;;;5102170;28;20478;-81
2022/10/28 02:43:04;;;;;;;7.50;6.60;;;13.40;99.90;;;;;;5103099;28;20385;-81
2022/10/28 02:45:54;;;;;;;6.80;6.10;;;13.40;99.90;;;;;;5102387;28;20447;-81
2022/10/28 02:48:44;;;;;;;8.17;6.93;;;13.40;99.90;;;;;;5102507;28;20392;-81
2022/10/28 02:51:36;;;;;;;11.93;7.60;;;13.50;99.90;;;;;;5101828;28;20388;-81
2022/10/28 02:54:28;;;;;;;9.80;7.80;;;13.50;99.90;;;;;;5102622;28;20396;-81
2022/10/28 02:57:16;;;;;;;10.57;7.53;;;13.40;99.90;;;;;;5102454;28;20448;-81
2022/10/28 03:00:06;;;;;;;11.50;6.90;;;13.40;99.90;;;;;;5102514;28;20392;-81
2022/10/28 03:02:50;;;;;;;10.33;7.40;;;13.40;99.90;;;;;;5103015;28;20401;-81
2022/10/28 03:05:35;;;;;;;8.07;6.63;;;13.40;99.90;;;;;;5103496;28;20380;-81
2022/10/28 03:08:19;;;;;;;12.90;7.20;;;13.40;99.90;;;;;;5087560;28;20429;-81
2022/10/28 03:11:03;;;;;;;10.57;7.00;;;13.40;99.90;;;;;;5102570;28;20384;-81
2022/10/28 03:13:47;;;;;;;13.17;7.00;;;13.40;99.90;;;;;;5102467;28;20737;-81
2022/10/28 03:16:31;;;;;;;13.23;6.90;;;13.30;99.90;;;;;;5104014;28;20456;-81
2022/10/28 03:19:15;;;;;;;8.97;6.90;;;13.20;99.90;;;;;;5105440;28;20931;-79
2022/10/28 03:22:00;;;;;;;9.03;7.07;;;13.20;99.90;;;;;;5117366;28;20503;-79
2022/10/28 03:24:44;;;;;;;8.60;6.63;;;13.30;99.90;;;;;;5116514;28;20483;-79
2022/10/28 03:27:28;;;;;;;10.90;7.10;;;13.30;99.90;;;;;;5117238;28;20388;-81
2022/10/28 03:30:13;;;;;;;8.20;6.50;;;13.30;99.90;;;;;;5097550;28;20880;-81
2022/10/28 03:32:57;;;;;;;10.87;8.27;;;13.30;99.90;;;;;;5101704;28;20585;-81
2022/10/28 03:35:41;;;;;;;10.30;7.50;;;13.20;99.90;;;;;;5101778;28;20404;-81
2022/10/28 03:38:25;;;;;;;8.90;7.07;;;13.20;99.90;;;;;;5100814;28;20880;-81
2022/10/28 03:41:09;;;;;;;8.50;7.10;;;13.20;99.90;;;;;;5100218;28;20372;-81
2022/10/28 03:43:54;;;;;;;10.77;6.13;;;13.10;99.90;;;;;;5100727;28;20372;-81
2022/10/28 03:46:38;;;;;;;9.77;6.93;;;13.00;99.90;;;;;;5099074;28;20416;-81
2022/10/28 03:49:22;;;;;;;11.47;6.93;;;13.00;99.90;;;;;;5098127;28;20388;-81
2022/10/28 03:52:05;;;;;;;11.70;6.30;;;13.00;99.90;;;;;;5100536;28;20472;-81
2022/10/28 03:54:50;;;;;;;9.07;7.20;;;13.10;99.90;;;;;;5100754;28;20376;-81
2022/10/28 03:57:34;;;;;;;10.17;6.33;;;13.10;99.90;;;;;;5100063;28;20463;-81
2022/10/28 04:00:18;;;;;;;9.77;6.60;;;13.20;99.90;;;;;;5100492;28;20384;-81
2022/10/28 04:03:02;;;;;;;10.43;5.57;;;13.20;99.90;;;;;;5099729;28;20418;-81
2022/10/28 04:05:48;;;;;;;11.60;6.43;;;13.20;99.90;;;;;;5101076;28;20380;-81
2022/10/28 04:08:33;;;;;;;14.57;7.00;;;13.20;99.90;;;;;;5100288;28;20446;-81
2022/10/28 04:11:17;;;;;;;13.57;7.20;;;13.20;99.90;;;;;;5100175;28;20411;-81
2022/10/28 04:14:01;;;;;;;12.30;7.07;;;13.20;99.90;;;;;;5100441;28;20396;-81
2022/10/28 04:16:45;;;;;;;14.70;8.60;;;13.10;99.90;;;;;;5100427;28;20440;-81
2022/10/28 04:19:29;;;;;;;6.70;6.10;;;13.00;99.90;;;;;;5100087;28;20441;-81
2022/10/28 04:22:13;;;;;;;8.80;6.90;;;13.00;99.90;;;;;;5100860;28;20879;-81
2022/10/28 04:24:57;;;;;;;14.67;7.90;;;13.00;99.90;;;;;;5100463;28;20757;-82
2022/10/28 04:27:44;;;;;;;9.60;7.13;;;13.10;99.90;;;;;;5100712;28;20412;-82
2022/10/28 04:30:28;;;;;;;11.23;6.70;;;13.10;99.90;;;;;;5099470;28;20443;-82
2022/10/28 04:33:12;;;;;;;7.13;6.50;;;13.20;99.90;;;;;;5100802;28;20470;-80
2022/10/28 04:35:56;;;;;;;10.83;6.80;;;13.10;99.90;;;;;;5098903;28;20388;-82
2022/10/28 04:38:40;;;;;;;22.23;7.27;;;13.10;99.90;;;;;;5083312;28;20431;-83
2022/10/28 04:41:25;;;;;;;8.27;7.40;;;13.00;99.90;;;;;;5099336;28;20446;-82
2022/10/28 04:44:09;;;;;;;14.10;7.33;;;12.90;99.90;;;;;;5101464;28;20372;-82
2022/10/28 04:46:55;;;;;;;13.30;7.00;;;12.90;99.90;;;;;;5084091;28;20799;-82
2022/10/28 04:49:40;;;;;;;8.70;6.90;;;13.00;99.90;;;;;;5105968;28;20453;-82
2022/10/28 04:52:24;;;;;;;8.00;5.87;;;13.00;99.90;;;;;;5099263;28;20389;-82
2022/10/28 04:55:08;;;;;;;13.50;6.47;;;13.10;99.90;;;;;;5099329;28;20445;-82
2022/10/28 04:57:56;;;;;;;7.77;6.50;;;13.10;99.90;;;;;;5096789;28;20971;-82
2022/10/28 05:00:40;;;;;;;7.13;6.43;;;13.10;99.90;;;;;;5080185;28;20518;-82
2022/10/28 05:03:24;;;;;;;17.03;7.40;;;13.10;99.90;;;;;;5094036;28;20411;-82
2022/10/28 05:06:08;;;;;;;8.07;7.27;;;13.10;99.90;;;;;;5098198;28;20396;-82
2022/10/28 05:08:52;;;;;;;10.07;6.77;;;13.00;99.90;;;;;;5099221;28;20741;-82
2022/10/28 05:11:36;;;;;;;9.47;6.67;;;13.00;99.90;;;;;;5098595;28;20407;-82
2022/10/28 05:14:21;;;;;;;7.43;6.00;;;13.10;99.90;;;;;;5091624;28;20412;-82
2022/10/28 05:17:05;;;;;;;6.23;5.40;;;13.20;99.90;;;;;;5079248;28;20809;-82
2022/10/28 05:19:49;;;;;;;8.80;7.20;;;13.10;99.90;;;;;;5082309;28;20469;-82
2022/10/28 05:22:33;;;;;;;11.73;7.67;;;13.00;99.90;;;;;;5067817;28;20408;-82
2022/10/28 05:25:18;;;;;;;8.97;7.10;;;13.00;99.90;;;;;;5080870;28;20415;-81
2022/10/28 05:28:02;;;;;;;12.00;8.03;;;13.00;99.90;;;;;;5086752;28;20420;-82
2022/10/28 05:30:47;;;;;;;9.67;6.80;;;13.10;99.90;;;;;;5092927;28;20391;-81
2022/10/28 05:33:32;;;;;;;9.67;7.03;;;13.10;99.90;;;;;;5088790;28;20516;-82
2022/10/28 05:36:16;;;;;;;13.27;6.30;;;13.20;99.90;;;;;;5104347;28;20508;-81
2022/10/28 05:39:01;;;;;;;16.40;8.90;;;13.20;99.90;;;;;;5103837;28;20404;-82
2022/10/28 05:41:44;;;;;;;8.67;7.23;;;13.10;99.90;;;;;;5098651;28;20454;-81
2022/10/28 05:44:29;;;;;;;13.43;7.33;;;13.00;99.90;;;;;;5092992;28;20396;-81
2022/10/28 05:47:13;;;;;;;9.00;7.57;;;13.10;99.90;;;;;;5103160;28;20393;-81
2022/10/28 05:49:57;;;;;;;9.57;8.67;;;13.20;99.90;;;;;;5098114;28;20860;-83
2022/10/28 05:52:47;;;;;;;11.00;9.23;;;13.10;99.90;;;;;;5099434;28;20419;-80
2022/10/28 05:55:31;;;;;;;11.10;7.73;;;13.00;99.90;;;;;;5095027;28;20400;-82
2022/10/28 05:58:15;;;;;;;7.60;6.70;;;13.00;99.90;;;;;;5086746;28;20444;-81
2022/10/28 06:00:59;;;;;;;8.40;7.03;;;13.00;99.90;;;;;;5076832;28;20434;-81
2022/10/28 06:03:43;;;;;;;9.90;7.80;;;13.00;99.90;;;;;;5106594;28;20895;-81
2022/10/28 06:06:27;;;;;;;8.17;6.53;;;13.00;99.90;;;;;;5081018;28;20773;-81
2022/10/28 06:09:12;;;;;;;10.43;7.90;;;12.90;99.90;;;;;;5093438;28;20493;-81
2022/10/28 06:11:56;;;;;;;22.83;8.50;;;13.00;99.90;;;;;;5094722;28;21824;-81
2022/10/28 06:14:40;;;;;;;9.17;7.33;;;12.90;99.90;;;;;;5094793;28;20434;-81
2022/10/28 06:17:24;;;;;;;9.43;6.80;;;12.80;99.90;;;;;;5091091;28;20458;-81
2022/10/28 06:20:09;;;;;;;11.27;7.23;;;12.70;99.90;;;;;;5097019;28;20403;-80
2022/10/28 06:22:55;;;;;;;10.93;8.73;;;12.80;99.90;;;;;;5096879;28;20462;-80
2022/10/28 06:25:39;;;;;;;7.50;6.80;;;13.00;99.90;;;;;;5093061;28;20440;-80
2022/10/28 06:28:23;;;;;;;15.13;8.10;;;12.90;99.90;;;;;;5094674;28;20515;-81
2022/10/28 06:31:08;;;;;;;12.10;9.60;;;13.00;99.90;;;;;;5096560;28;20448;-80
2022/10/28 06:33:52;;;;;;;14.00;7.90;;;13.10;99.90;;;;;;5090959;28;20533;-82
2022/10/28 06:36:38;;;;;;;8.53;6.53;;;13.20;99.90;;;;;;5075921;28;20483;-82
2022/10/28 06:39:22;;;;;;;16.90;7.33;;;13.30;99.90;;;;;;5077292;28;20823;-82
2022/10/28 06:42:06;;;;;;;15.33;6.83;;;13.40;99.90;;;;;;5076082;28;20482;-81
2022/10/28 06:44:51;;;;;;;15.07;7.30;;;13.40;99.90;;;;;;5076171;28;20874;-82
2022/10/28 06:47:35;;;;;;;9.93;8.03;;;13.60;99.90;;;;;;5070320;28;20468;-81
2022/10/28 06:50:19;;;;;;;14.03;8.90;;;13.60;99.90;;;;;;5080309;28;20440;-80
2022/10/28 06:53:03;;;;;;;10.50;7.60;;;13.70;99.90;;;;;;5075526;28;20480;-82
2022/10/28 06:55:53;;;;;;;8.80;7.17;;;13.80;99.90;;;;;;5078867;28;20437;-82
2022/10/28 06:58:37;;;;;;;26.73;7.70;;;13.70;99.90;;;;;;5079984;28;20921;-82
2022/10/28 07:01:21;;;;;;;12.50;7.30;;;13.80;99.90;;;;;;5075287;28;20456;-82
2022/10/28 07:04:08;;;;;;;11.43;6.17;;;13.90;99.90;;;;;;5074758;28;20453;-81
2022/10/28 07:06:56;;;;;;;9.87;7.40;;;13.70;99.90;;;;;;5077469;28;20424;-82
2022/10/28 07:09:42;;;;;;;25.13;14.60;;;13.80;99.90;;;;;;5078129;28;20428;-82
2022/10/28 07:12:26;;;;;;;16.87;11.20;;;13.90;99.90;;;;;;5077990;28;20437;-83
2022/10/28 07:15:11;;;;;;;19.50;8.10;;;13.90;99.90;;;;;;5075645;28;20508;-83
2022/10/28 07:17:57;;;;;;;32.80;24.47;;;13.70;99.90;;;;;;5087751;28;20456;-81
2022/10/28 07:20:42;;;;;;;19.43;9.93;;;13.90;99.90;;;;;;5074093;28;20431;-81
2022/10/28 07:23:27;;;;;;;15.87;8.80;;;13.90;99.90;;;;;;5076476;28;20432;-82
2022/10/28 07:26:11;;;;;;;10.00;7.80;;;13.90;99.90;;;;;;5076635;28;20436;-83
2022/10/28 07:28:55;;;;;;;17.57;8.87;;;14.00;99.90;;;;;;5078496;28;20451;-81
2022/10/28 07:31:39;;;;;;;11.23;10.07;;;14.00;99.90;;;;;;5077720;28;20432;-82
2022/10/28 07:34:23;;;;;;;15.70;8.43;;;14.10;99.90;;;;;;5093596;28;20459;-82
2022/10/28 07:37:09;;;;;;;8.83;7.47;;;14.10;99.90;;;;;;5097056;28;20463;-81
2022/10/28 07:39:54;;;;;;;13.27;9.03;;;14.10;99.90;;;;;;5093201;28;20515;-81
2022/10/28 07:42:38;;;;;;;9.10;8.17;;;14.10;99.90;;;;;;5096014;28;20503;-82
2022/10/28 07:45:22;;;;;;;13.73;8.30;;;14.10;99.90;;;;;;5099728;28;20773;-82
2022/10/28 07:48:06;;;;;;;15.80;9.00;;;14.20;99.90;;;;;;5106829;28;20431;-81
2022/10/28 07:50:50;;;;;;;15.20;10.77;;;14.30;99.90;;;;;;5107338;28;20714;-81
2022/10/28 07:53:35;;;;;;;10.37;7.63;;;14.30;99.90;;;;;;5110540;28;20408;-80
2022/10/28 07:56:19;;;;;;;11.60;8.47;;;14.30;99.90;;;;;;5084018;28;20586;-80
2022/10/28 07:59:03;;;;;;;18.70;9.40;;;14.60;99.90;;;;;;5095025;28;20754;-80
2022/10/28 08:01:47;;;;;;;13.17;7.00;;;14.70;99.90;;;;;;5090765;28;20442;-81
2022/10/28 08:04:32;;;;;;;13.20;6.20;;;14.80;99.90;;;;;;5095183;28;20439;-81
2022/10/28 08:07:17;;;;;;;10.03;6.27;;;14.90;99.90;;;;;;5098607;28;20439;-81
2022/10/28 08:10:01;;;;;;;14.63;7.37;;;15.30;99.90;;;;;;5092041;28;20480;-81
2022/10/28 08:12:46;;;;;;;9.37;7.20;;;15.40;99.90;;;;;;5087170;28;20466;-81
2022/10/28 08:15:30;;;;;;;8.10;6.23;;;15.70;99.90;;;;;;5080705;28;20504;-81
2022/10/28 08:18:14;;;;;;;7.93;7.00;;;16.10;99.90;;;;;;5079698;28;20467;-80
2022/10/28 08:21:00;;;;;;;11.53;6.70;;;16.20;99.90;;;;;;5092939;28;20420;-81
2022/10/28 08:23:45;;;;;;;7.40;6.17;;;16.70;99.90;;;;;;5083944;28;21059;-82
2022/10/28 08:26:29;;;;;;;6.43;5.80;;;17.30;99.90;;;;;;5096602;28;20485;-82
2022/10/28 08:29:13;;;;;;;33.33;10.00;;;17.50;99.90;;;;;;5090353;28;20486;-80
2022/10/28 08:31:57;;;;;;;14.67;7.60;;;18.00;99.90;;;;;;5089372;28;20447;-83
2022/10/28 08:34:42;;;;;;;12.70;6.00;;;17.70;99.90;;;;;;5090106;28;20475;-82
2022/10/28 08:37:26;;;;;;;9.47;6.27;;;17.70;99.90;;;;;;5092077;28;20629;-82
2022/10/28 08:40:11;;;;;;;11.57;6.33;;;17.30;99.90;;;;;;5094035;28;20423;-82
2022/10/28 08:43:06;;;;;;;9.03;6.97;;;17.20;99.90;;;;;;5091761;28;20435;-81
2022/10/28 08:45:59;;;;;;;10.50;5.23;;;18.00;99.90;;;;;;5090795;28;20455;-81
2022/10/28 08:48:43;;;;;;;12.90;5.10;;;18.60;99.90;;;;;;5083143;28;20520;-81
2022/10/28 08:51:56;;;;;;;11.47;5.37;;;19.60;99.90;;;;;;5076995;28;20419;-82
2022/10/28 08:54:49;;;;;;;5.83;4.57;;;21.00;99.90;;;;;;5088723;28;20461;-82
2022/10/28 08:57:45;;;;;;;8.77;4.93;;;21.30;99.90;;;;;;5077748;28;20509;-81
2022/10/28 09:00:32;;;;;;;7.37;4.83;;;22.10;99.90;;;;;;5088817;28;20411;-81
2022/10/28 09:03:21;;;;;;;11.97;4.53;;;22.40;99.90;;;;;;5088425;28;20435;-82
2022/10/28 09:06:08;;;;;;;19.03;17.30;;;21.90;99.90;;;;;;5093353;28;20419;-81
2022/10/28 09:08:53;;;;;;;6.27;4.80;;;22.40;99.90;;;;;;5079358;28;20427;-82
2022/10/28 09:11:58;;;;;;;11.70;5.10;;;23.40;99.90;;;;;;5090647;28;20438;-82
2022/10/28 09:14:57;;;;;;;4.00;3.60;;;23.30;99.90;;;;;;5089269;28;20478;-83
2022/10/28 09:17:54;;;;;;;6.60;4.67;;;23.10;99.90;;;;;;5096368;28;20450;-82
2022/10/28 09:20:55;;;;;;;6.70;3.73;;;23.30;99.90;;;;;;5074046;28;20991;-82
2022/10/28 09:23:52;;;;;;;15.47;5.07;;;24.20;99.90;;;;;;5083012;28;20507;-82
2022/10/28 09:27:00;;;;;;;4.50;4.10;;;24.30;99.90;;;;;;5092632;28;20493;-82
2022/10/28 09:30:18;;;;;;;6.97;6.40;;;24.20;99.90;;;;;;5092078;28;20450;-82
2022/10/28 09:33:32;;;;;;;7.97;6.30;;;22.50;99.90;;;;;;5069911;28;20781;-82
2022/10/28 09:36:26;;;;;;;7.47;4.20;;;21.80;99.90;;;;;;5098603;28;20903;-82
2022/10/28 09:39:29;;;;;;;7.23;4.90;;;22.40;99.90;;;;;;5078920;28;20428;-81
2022/10/28 09:42:21;;;;;;;6.43;5.37;;;22.90;99.90;;;;;;5078732;28;20484;-82
2022/10/28 09:45:16;;;;;;;7.20;4.40;;;23.10;99.90;;;;;;5089294;28;20482;-81
2022/10/28 09:48:12;;;;;;;7.50;4.10;;;23.50;99.90;;;;;;5092938;28;20928;-81
2022/10/28 09:51:00;;;;;;;6.50;4.33;;;22.90;99.90;;;;;;5096985;28;20494;-82
2022/10/28 09:53:51;;;;;;;8.20;4.30;;;22.40;99.90;;;;;;5084068;28;20457;-83
2022/10/28 09:56:36;;;;;;;9.70;3.67;;;21.50;99.90;;;;;;5081615;28;20479;-80
2022/10/28 09:59:20;;;;;;;5.53;4.50;;;21.10;99.90;;;;;;5108774;28;20434;-82
2022/10/28 10:02:04;;;;;;;6.30;4.43;;;20.20;99.90;;;;;;5112946;28;20453;-80
2022/10/28 10:04:49;;;;;;;9.00;5.17;;;19.80;99.90;;;;;;5099814;28;20477;-79
2022/10/28 10:07:38;;;;;;;11.20;4.30;;;19.60;99.90;;;;;;5084005;28;20989;-81
2022/10/28 10:10:26;;;;;;;4.67;4.27;;;19.20;99.90;;;;;;5095512;28;20967;-82
2022/10/28 10:13:14;;;;;;;4.27;3.97;;;19.00;99.90;;;;;;5088534;28;20483;-82
2022/10/28 10:16:04;;;;;;;5.77;4.20;;;19.00;99.90;;;;;;5095977;28;20471;-82
2022/10/28 10:18:52;;;;;;;5.60;4.90;;;18.90;99.90;;;;;;5084971;28;20447;-80
2022/10/28 10:21:46;;;;;;;9.70;5.43;;;18.80;99.90;;;;;;5083788;28;20430;-82
2022/10/28 10:24:34;;;;;;;8.80;4.77;;;19.00;99.90;;;;;;5091168;28;20482;-82
2022/10/28 10:27:19;;;;;;;6.50;4.30;;;18.90;99.90;;;;;;5080785;28;20771;-80
2022/10/28 10:30:15;;;;;;;11.30;4.53;;;18.90;99.90;;;;;;5093723;28;20439;-81
2022/10/28 10:33:01;;;;;;;9.07;5.00;;;19.00;99.90;;;;;;5099770;28;20811;-82
2022/10/28 10:35:53;;;;;;;6.27;5.67;;;19.20;99.90;;;;;;5074092;28;20438;-82
2022/10/28 10:38:49;;;;;;;7.20;5.10;;;19.30;99.90;;;;;;5101601;28;20432;-82
2022/10/28 10:41:41;;;;;;;11.70;4.70;;;19.20;99.90;;;;;;5082765;28;20435;-81
2022/10/28 10:44:33;;;;;;;7.60;5.07;;;19.90;99.90;;;;;;5086396;28;20774;-81
2022/10/28 10:47:19;;;;;;;7.30;5.00;;;21.00;99.90;;;;;;5096605;28;20496;-81
2022/10/28 10:50:19;;;;;;;5.73;4.77;;;21.70;99.90;;;;;;5103115;28;20408;-82
2022/10/28 10:53:05;;;;;;;6.50;4.47;;;22.70;99.90;;;;;;5102430;28;20774;-82
2022/10/28 10:56:07;;;;;;;7.50;4.20;;;22.70;99.90;;;;;;5098460;28;21136;-82
2022/10/28 10:58:55;;;;;;;9.03;5.27;;;21.80;99.90;;;;;;5099587;28;20495;-83
2022/10/28 11:01:40;;;;;;;4.70;4.20;;;21.00;99.90;;;;;;5083202;28;20424;-81
2022/10/28 11:04:26;;;;;;;11.60;4.90;;;20.40;99.90;;;;;;5104854;28;20423;-81
2022/10/28 11:07:14;;;;;;;6.67;4.40;;;20.20;99.90;;;;;;5099196;28;20423;-83
2022/10/28 11:10:00;;;;;;;6.80;5.40;;;19.90;99.90;;;;;;5105125;28;20424;-83
2022/10/28 11:12:53;;;;;;;5.03;4.50;;;19.90;99.90;;;;;;5100099;28;20490;-83
2022/10/28 11:15:37;;;;;;;5.97;4.90;;;20.10;99.90;;;;;;5076657;28;20426;-83
2022/10/28 11:18:21;;;;;;;7.00;5.07;;;21.30;99.90;;;;;;5088492;28;20522;-81
2022/10/28 11:21:32;;;;;;;6.20;4.30;;;21.90;99.90;;;;;;5083066;28;20450;-81
2022/10/28 11:24:48;;;;;;;6.17;4.40;;;21.90;99.90;;;;;;5094065;28;20478;-80
2022/10/28 11:27:51;;;;;;;6.80;4.80;;;23.30;99.90;;;;;;5097580;28;20458;-80
2022/10/28 11:30:52;;;;;;;8.50;4.03;;;24.40;99.90;;;;;;5097687;28;20450;-81
2022/10/28 11:33:51;;;;;;;7.73;4.40;;;24.90;99.90;;;;;;5089986;28;20484;-81
2022/10/28 11:36:52;;;;;;;9.50;5.47;;;24.70;99.90;;;;;;5083948;28;20547;-82
2022/10/28 11:40:06;;;;;;;8.50;4.57;;;25.80;99.90;;;;;;5088501;28;20437;-81
2022/10/28 11:43:13;;;;;;;6.53;5.87;;;26.40;99.90;;;;;;5096965;28;20790;-81
2022/10/28 11:46:05;;;;;;;6.03;4.30;;;26.20;99.90;;;;;;5083939;28;20416;-80
2022/10/28 11:49:16;;;;;;;10.60;4.47;;;25.90;99.90;;;;;;5084634;28;20430;-81
2022/10/28 11:52:39;;;;;;;4.77;4.37;;;25.50;99.90;;;;;;5097033;28;20528;-81
2022/10/28 11:55:41;;;;;;;5.20;4.73;;;26.20;99.90;;;;;;5089707;28;20488;-80
2022/10/28 11:58:41;;;;;;;5.93;3.50;;;26.20;99.90;;;;;;5096355;28;20900;-82
2022/10/28 12:01:37;;;;;;;6.10;3.80;;;26.20;99.90;;;;;;5099712;28;20495;-81
2022/10/28 12:04:41;;;;;;;4.77;4.37;;;26.70;99.90;;;;;;5087814;28;20454;-82
2022/10/28 12:07:53;;;;;;;7.80;5.43;;;27.50;99.90;;;;;;5070198;28;21001;-82
2022/10/28 12:11:00;;;;;;;4.43;3.50;;;26.60;99.90;;;;;;5085373;28;20477;-81
2022/10/28 12:14:11;;;;;;;10.90;4.80;;;26.40;99.90;;;;;;5084431;28;20465;-81
2022/10/28 12:17:11;;;;;;;7.23;4.10;;;25.30;99.90;;;;;;5095789;28;20470;-82
2022/10/28 12:20:00;;;;;;;4.40;3.60;;;25.20;99.90;;;;;;5096739;28;20497;-81
2022/10/28 12:22:49;;;;;;;6.00;4.57;;;24.80;99.90;;;;;;5101405;28;20419;-81
2022/10/28 12:25:37;;;;;;;4.30;4.00;;;24.40;99.90;;;;;;5094095;28;20899;-81
2022/10/28 12:28:38;;;;;;;5.67;5.17;;;23.70;99.90;;;;;;5083643;28;20443;-81
2022/10/28 12:31:31;;;;;;;9.13;4.80;;;23.30;99.90;;;;;;5099030;28;20462;-82
2022/10/28 12:34:21;;;;;;;13.30;6.60;;;23.90;99.90;;;;;;5098584;28;20486;-81
2022/10/28 12:37:14;;;;;;;11.30;4.67;;;23.70;99.90;;;;;;5083214;28;20995;-82
2022/10/28 12:40:11;;;;;;;6.20;5.70;;;23.50;99.90;;;;;;5094098;28;20419;-82
2022/10/28 12:43:04;;;;;;;10.23;4.03;;;23.70;99.90;;;;;;5098692;28;20947;-82
2022/10/28 12:45:50;;;;;;;4.67;3.47;;;24.30;99.90;;;;;;5100462;28;20438;-81
2022/10/28 12:48:44;;;;;;;11.27;4.40;;;25.10;99.90;;;;;;5073658;28;20481;-80
2022/10/28 12:51:35;;;;;;;4.13;3.43;;;25.70;99.90;;;;;;5085558;28;20484;-82
2022/10/28 12:54:27;;;;;;;4.20;3.50;;;26.10;99.90;;;;;;5103306;28;20419;-81
2022/10/28 12:57:15;;;;;;;13.07;6.13;;;25.70;99.90;;;;;;5099560;28;21040;-81
2022/10/28 13:00:14;;;;;;;4.70;4.00;;;25.80;99.90;;;;;;5100383;28;20435;-81
2022/10/28 13:03:03;;;;;;;5.53;3.57;;;25.80;99.90;;;;;;5087260;28;20435;-81
2022/10/28 13:06:17;;;;;;;4.63;3.20;;;25.30;99.90;;;;;;5107366;28;20417;-81
2022/10/28 13:09:32;;;;;;;4.13;3.40;;;25.50;99.90;;;;;;5092537;28;20513;-82
2022/10/28 13:12:37;;;;;;;11.90;3.77;;;25.50;99.90;;;;;;5083869;28;20430;-82
2022/10/28 13:15:37;;;;;;;5.70;3.37;;;25.50;99.90;;;;;;5101360;28;20474;-82
2022/10/28 13:18:38;;;;;;;3.20;2.60;;;25.30;99.90;;;;;;5096323;28;20437;-82
2022/10/28 13:21:39;;;;;;;5.60;3.50;;;25.60;99.90;;;;;;5094885;28;20481;-81
2022/10/28 13:24:49;;;;;;;2.87;2.57;;;26.00;99.90;;;;;;5102115;28;20434;-82
2022/10/28 13:27:34;;;;;;;3.53;3.07;;;26.30;99.90;;;;;;5111447;28;20395;-82
2022/10/28 13:30:21;;;;;;;5.40;3.20;;;26.40;99.90;;;;;;5099957;28;20449;-82
2022/10/28 13:33:16;;;;;;;7.70;3.90;;;25.80;99.90;;;;;;5081268;28;20480;-82
2022/10/28 13:36:26;;;;;;;4.23;2.87;;;25.80;99.90;;;;;;5080607;28;20411;-81
2022/10/28 13:39:40;;;;;;;5.87;3.60;;;25.40;99.90;;;;;;5079102;28;20466;-81
2022/10/28 13:42:44;;;;;;;4.40;3.30;;;25.10;99.90;;;;;;5079892;28;20442;-80
2022/10/28 13:45:54;;;;;;;3.90;3.50;;;25.00;99.90;;;;;;5088478;28;20462;-80
2022/10/28 13:48:46;;;;;;;4.50;3.13;;;25.60;99.90;;;;;;5089471;28;20415;-81
2022/10/28 13:51:31;;;;;;;5.30;3.57;;;25.50;99.90;;;;;;5076360;28;20383;-82
2022/10/28 13:54:25;;;;;;;3.50;3.10;;;25.40;99.90;;;;;;5103234;28;20513;-82
2022/10/28 13:57:31;;;;;;;6.37;3.90;;;25.30;99.90;;;;;;5095619;28;20439;-82
2022/10/28 14:00:34;;;;;;;3.90;3.53;;;25.70;99.90;;;;;;5099907;28;20688;-82
2022/10/28 14:03:24;;;;;;;4.87;3.23;;;25.60;99.90;;;;;;5104482;28;20375;-82
2022/10/28 14:06:08;;;;;;;12.00;4.37;;;25.10;99.90;;;;;;5104067;28;20431;-82
2022/10/28 14:08:52;;;;;;;5.70;3.37;;;25.10;99.90;;;;;;5104886;28;20427;-82
2022/10/28 14:11:37;;;;;;;3.20;2.90;;;25.10;99.90;;;;;;5111198;28;20513;-82
2022/10/28 14:14:22;;;;;;;7.13;3.07;;;24.40;99.90;;;;;;5092810;28;20431;-82
2022/10/28 14:17:19;;;;;;;7.10;3.13;;;24.50;99.90;;;;;;5102826;28;20510;-82
2022/10/28 14:20:20;;;;;;;2.80;2.60;;;24.30;99.90;;;;;;5097241;28;20476;-82
2022/10/28 14:23:44;;;;;;;12.03;6.33;;;24.00;99.90;;;;;;5102119;28;20458;-80
2022/10/28 14:26:28;;;;;;;9.83;3.97;;;23.90;99.90;;;;;;5096035;28;20483;-82
2022/10/28 14:29:28;;;;;;;7.97;4.50;;;23.60;99.90;;;;;;5100956;28;20434;-82
2022/10/28 14:32:40;;;;;;;3.90;2.90;;;23.30;99.90;;;;;;5089118;28;20488;-82
2022/10/28 14:35:32;;;;;;;5.80;3.00;;;23.20;99.90;;;;;;5102454;28;20458;-81
2022/10/28 14:38:48;;;;;;;6.80;3.70;;;22.80;99.90;;;;;;5075817;28;20481;-81
2022/10/28 14:42:01;;;;;;;3.60;3.30;;;22.70;99.90;;;;;;5097655;28;20427;-82